sensor_id;sensor_type;location;lat;lon;timestamp;P1;durP1;ratioP1;P2;durP2;ratioP2
12155;SDS011;6141;49.092;8.516;2023-05-07T00:00:31;3.70;;;2.30;;
12155;SDS011;6141;49.092;8.516;2023-05-07T00:03:00;5.77;;;2.87;;
12155;SDS011;6141;49.092;8.516;2023-05-07T00:05:29;3.77;;;2.03;;
12155;SDS011;6141;49.092;8.516;2023-05-07T00:07:57;3.90;;;2.10;;
12155;SDS011;6141;49.092;8.516;2023-05-07T00:10:27;2.13;;;1.93;;
12155;SDS011;6141;49.092;8.516;2023-05-07T00:12:55;3.30;;;2.30;;
12155;SDS011;6141;49.092;8.516;2023-05-07T00:15:25;4.40;;;2.10;;
12155;SDS011;6141;49.092;8.516;2023-05-07T00:17:55;2.43;;;2.10;;
12155;SDS011;6141;49.092;8.516;2023-05-07T00:20:24;4.23;;;2.13;;
12155;SDS011;6141;49.092;8.516;2023-05-07T00:22:52;4.23;;;2.30;;
12155;SDS011;6141;49.092;8.516;2023-05-07T00:25:21;6.33;;;2.00;;
12155;SDS011;6141;49.092;8.516;2023-05-07T00:27:50;4.07;;;2.00;;
12155;SDS011;6141;49.092;8.516;2023-05-07T00:30:18;2.93;;;1.83;;
12155;SDS011;6141;49.092;8.516;2023-05-07T00:32:48;2.67;;;2.03;;
12155;SDS011;6141;49.092;8.516;2023-05-07T00:35:17;2.87;;;2.10;;
12155;SDS011;6141;49.092;8.516;2023-05-07T00:37:47;4.77;;;2.07;;
12155;SDS011;6141;49.092;8.516;2023-05-07T00:40:16;4.33;;;2.07;;
12155;SDS011;6141;49.092;8.516;2023-05-07T00:42:45;2.73;;;1.80;;
12155;SDS011;6141;49.092;8.516;2023-05-07T00:45:15;2.37;;;2.17;;
12155;SDS011;6141;49.092;8.516;2023-05-07T00:47:44;2.50;;;2.20;;
12155;SDS011;6141;49.092;8.516;2023-05-07T00:50:14;3.93;;;2.27;;
12155;SDS011;6141;49.092;8.516;2023-05-07T00:52:44;2.60;;;2.27;;
12155;SDS011;6141;49.092;8.516;2023-05-07T00:55:12;7.33;;;2.57;;
12155;SDS011;6141;49.092;8.516;2023-05-07T00:57:41;2.70;;;2.50;;
12155;SDS011;6141;49.092;8.516;2023-05-07T01:00:10;2.47;;;2.27;;
12155;SDS011;6141;49.092;8.516;2023-05-07T01:02:41;5.77;;;2.47;;
12155;SDS011;6141;49.092;8.516;2023-05-07T01:05:12;2.40;;;2.20;;
12155;SDS011;6141;49.092;8.516;2023-05-07T01:07:43;3.10;;;2.40;;
12155;SDS011;6141;49.092;8.516;2023-05-07T01:10:13;3.00;;;2.47;;
12155;SDS011;6141;49.092;8.516;2023-05-07T01:12:42;3.83;;;2.47;;
12155;SDS011;6141;49.092;8.516;2023-05-07T01:15:13;3.90;;;2.70;;
12155;SDS011;6141;49.092;8.516;2023-05-07T01:17:42;4.03;;;2.97;;
12155;SDS011;6141;49.092;8.516;2023-05-07T01:20:19;3.20;;;2.57;;
12155;SDS011;6141;49.092;8.516;2023-05-07T01:22:51;2.70;;;2.47;;
12155;SDS011;6141;49.092;8.516;2023-05-07T01:25:20;2.90;;;2.60;;
12155;SDS011;6141;49.092;8.516;2023-05-07T01:27:52;4.60;;;2.67;;
12155;SDS011;6141;49.092;8.516;2023-05-07T01:30:27;4.27;;;2.90;;
12155;SDS011;6141;49.092;8.516;2023-05-07T01:32:58;3.03;;;2.70;;
12155;SDS011;6141;49.092;8.516;2023-05-07T01:35:33;4.37;;;2.47;;
12155;SDS011;6141;49.092;8.516;2023-05-07T01:38:07;2.70;;;2.50;;
12155;SDS011;6141;49.092;8.516;2023-05-07T01:40:36;4.13;;;2.87;;
12155;SDS011;6141;49.092;8.516;2023-05-07T01:43:06;3.37;;;2.60;;
12155;SDS011;6141;49.092;8.516;2023-05-07T01:45:36;2.90;;;2.60;;
12155;SDS011;6141;49.092;8.516;2023-05-07T01:48:07;3.07;;;2.83;;
12155;SDS011;6141;49.092;8.516;2023-05-07T01:50:37;3.73;;;3.10;;
12155;SDS011;6141;49.092;8.516;2023-05-07T01:53:08;4.47;;;2.80;;
12155;SDS011;6141;49.092;8.516;2023-05-07T01:55:37;4.87;;;2.93;;
12155;SDS011;6141;49.092;8.516;2023-05-07T01:58:10;3.70;;;3.17;;
12155;SDS011;6141;49.092;8.516;2023-05-07T02:00:39;5.47;;;2.90;;
12155;SDS011;6141;49.092;8.516;2023-05-07T02:03:08;2.93;;;2.73;;
12155;SDS011;6141;49.092;8.516;2023-05-07T02:05:44;3.60;;;2.83;;
12155;SDS011;6141;49.092;8.516;2023-05-07T02:08:25;3.70;;;2.67;;
12155;SDS011;6141;49.092;8.516;2023-05-07T02:10:54;3.47;;;2.53;;
12155;SDS011;6141;49.092;8.516;2023-05-07T02:13:24;4.47;;;2.50;;
12155;SDS011;6141;49.092;8.516;2023-05-07T02:16:01;4.70;;;2.50;;
12155;SDS011;6141;49.092;8.516;2023-05-07T02:18:33;3.30;;;3.00;;
12155;SDS011;6141;49.092;8.516;2023-05-07T02:21:10;4.27;;;2.90;;
12155;SDS011;6141;49.092;8.516;2023-05-07T02:23:42;3.10;;;2.50;;
12155;SDS011;6141;49.092;8.516;2023-05-07T02:26:13;3.57;;;2.83;;
12155;SDS011;6141;49.092;8.516;2023-05-07T02:28:42;3.53;;;2.77;;
12155;SDS011;6141;49.092;8.516;2023-05-07T02:31:12;4.23;;;2.93;;
12155;SDS011;6141;49.092;8.516;2023-05-07T02:33:41;3.30;;;2.63;;
12155;SDS011;6141;49.092;8.516;2023-05-07T02:36:12;3.13;;;2.70;;
12155;SDS011;6141;49.092;8.516;2023-05-07T02:38:57;4.53;;;2.80;;
12155;SDS011;6141;49.092;8.516;2023-05-07T02:41:26;4.20;;;2.67;;
12155;SDS011;6141;49.092;8.516;2023-05-07T02:43:55;3.00;;;2.70;;
12155;SDS011;6141;49.092;8.516;2023-05-07T02:46:24;3.77;;;2.73;;
12155;SDS011;6141;49.092;8.516;2023-05-07T02:48:59;5.67;;;2.60;;
12155;SDS011;6141;49.092;8.516;2023-05-07T02:51:29;4.27;;;3.00;;
12155;SDS011;6141;49.092;8.516;2023-05-07T02:54:02;5.37;;;2.90;;
12155;SDS011;6141;49.092;8.516;2023-05-07T02:56:34;4.40;;;2.83;;
12155;SDS011;6141;49.092;8.516;2023-05-07T02:59:02;3.10;;;2.80;;
12155;SDS011;6141;49.092;8.516;2023-05-07T03:01:36;3.13;;;2.80;;
12155;SDS011;6141;49.092;8.516;2023-05-07T03:04:06;3.63;;;3.13;;
12155;SDS011;6141;49.092;8.516;2023-05-07T03:06:35;3.73;;;2.93;;
12155;SDS011;6141;49.092;8.516;2023-05-07T03:09:06;4.53;;;2.90;;
12155;SDS011;6141;49.092;8.516;2023-05-07T03:11:35;3.30;;;2.80;;
12155;SDS011;6141;49.092;8.516;2023-05-07T03:14:03;5.57;;;2.50;;
12155;SDS011;6141;49.092;8.516;2023-05-07T03:16:31;5.00;;;2.73;;
12155;SDS011;6141;49.092;8.516;2023-05-07T03:19:00;3.70;;;2.77;;
12155;SDS011;6141;49.092;8.516;2023-05-07T03:21:29;3.10;;;2.80;;
12155;SDS011;6141;49.092;8.516;2023-05-07T03:24:00;4.30;;;3.20;;
12155;SDS011;6141;49.092;8.516;2023-05-07T03:26:30;4.37;;;3.20;;
12155;SDS011;6141;49.092;8.516;2023-05-07T03:28:59;4.33;;;2.90;;
12155;SDS011;6141;49.092;8.516;2023-05-07T03:31:27;4.73;;;3.10;;
12155;SDS011;6141;49.092;8.516;2023-05-07T03:33:57;4.30;;;2.57;;
12155;SDS011;6141;49.092;8.516;2023-05-07T03:36:25;4.10;;;2.93;;
12155;SDS011;6141;49.092;8.516;2023-05-07T03:38:55;3.47;;;2.37;;
12155;SDS011;6141;49.092;8.516;2023-05-07T03:41:33;3.23;;;2.80;;
12155;SDS011;6141;49.092;8.516;2023-05-07T03:44:02;3.73;;;2.50;;
12155;SDS011;6141;49.092;8.516;2023-05-07T03:46:31;3.13;;;2.83;;
12155;SDS011;6141;49.092;8.516;2023-05-07T03:48:59;3.57;;;2.53;;
12155;SDS011;6141;49.092;8.516;2023-05-07T03:51:29;3.13;;;2.80;;
12155;SDS011;6141;49.092;8.516;2023-05-07T03:53:59;3.60;;;3.10;;
12155;SDS011;6141;49.092;8.516;2023-05-07T03:56:30;3.10;;;2.80;;
12155;SDS011;6141;49.092;8.516;2023-05-07T03:59:00;5.57;;;2.70;;
12155;SDS011;6141;49.092;8.516;2023-05-07T04:01:29;3.10;;;2.70;;
12155;SDS011;6141;49.092;8.516;2023-05-07T04:03:58;3.33;;;2.77;;
12155;SDS011;6141;49.092;8.516;2023-05-07T04:06:27;3.50;;;2.97;;
12155;SDS011;6141;49.092;8.516;2023-05-07T04:08:57;3.10;;;2.80;;
12155;SDS011;6141;49.092;8.516;2023-05-07T04:11:27;3.07;;;2.77;;
12155;SDS011;6141;49.092;8.516;2023-05-07T04:13:55;5.20;;;2.70;;
12155;SDS011;6141;49.092;8.516;2023-05-07T04:16:25;3.20;;;2.50;;
12155;SDS011;6141;49.092;8.516;2023-05-07T04:18:53;3.63;;;2.60;;
12155;SDS011;6141;49.092;8.516;2023-05-07T04:21:22;2.53;;;2.33;;
12155;SDS011;6141;49.092;8.516;2023-05-07T04:23:53;4.33;;;2.50;;
12155;SDS011;6141;49.092;8.516;2023-05-07T04:26:21;3.80;;;2.90;;
12155;SDS011;6141;49.092;8.516;2023-05-07T04:28:51;3.13;;;2.70;;
12155;SDS011;6141;49.092;8.516;2023-05-07T04:31:19;4.00;;;2.87;;
12155;SDS011;6141;49.092;8.516;2023-05-07T04:33:52;4.43;;;2.53;;
12155;SDS011;6141;49.092;8.516;2023-05-07T04:36:22;3.10;;;2.60;;
12155;SDS011;6141;49.092;8.516;2023-05-07T04:39:02;4.27;;;3.10;;
12155;SDS011;6141;49.092;8.516;2023-05-07T04:41:30;3.37;;;3.07;;
12155;SDS011;6141;49.092;8.516;2023-05-07T04:44:00;4.00;;;3.10;;
12155;SDS011;6141;49.092;8.516;2023-05-07T04:46:33;3.07;;;2.83;;
12155;SDS011;6141;49.092;8.516;2023-05-07T04:49:03;3.27;;;2.93;;
12155;SDS011;6141;49.092;8.516;2023-05-07T04:51:32;3.63;;;3.17;;
12155;SDS011;6141;49.092;8.516;2023-05-07T04:54:01;3.60;;;2.80;;
12155;SDS011;6141;49.092;8.516;2023-05-07T04:56:31;3.30;;;3.00;;
12155;SDS011;6141;49.092;8.516;2023-05-07T04:59:00;3.37;;;2.90;;
12155;SDS011;6141;49.092;8.516;2023-05-07T05:01:30;4.30;;;2.57;;
12155;SDS011;6141;49.092;8.516;2023-05-07T05:03:59;3.10;;;2.80;;
12155;SDS011;6141;49.092;8.516;2023-05-07T05:06:30;3.87;;;3.10;;
12155;SDS011;6141;49.092;8.516;2023-05-07T05:09:01;5.27;;;3.10;;
12155;SDS011;6141;49.092;8.516;2023-05-07T05:11:33;3.73;;;3.27;;
12155;SDS011;6141;49.092;8.516;2023-05-07T05:14:01;3.73;;;3.30;;
12155;SDS011;6141;49.092;8.516;2023-05-07T05:16:30;3.83;;;3.10;;
12155;SDS011;6141;49.092;8.516;2023-05-07T05:18:59;3.00;;;2.70;;
12155;SDS011;6141;49.092;8.516;2023-05-07T05:21:34;2.87;;;2.67;;
12155;SDS011;6141;49.092;8.516;2023-05-07T05:24:06;3.27;;;2.93;;
12155;SDS011;6141;49.092;8.516;2023-05-07T05:26:38;2.90;;;2.70;;
12155;SDS011;6141;49.092;8.516;2023-05-07T05:29:06;5.10;;;3.03;;
12155;SDS011;6141;49.092;8.516;2023-05-07T05:31:38;3.60;;;2.70;;
12155;SDS011;6141;49.092;8.516;2023-05-07T05:34:08;3.80;;;2.50;;
12155;SDS011;6141;49.092;8.516;2023-05-07T05:36:39;3.67;;;2.57;;
12155;SDS011;6141;49.092;8.516;2023-05-07T05:39:07;3.47;;;2.63;;
12155;SDS011;6141;49.092;8.516;2023-05-07T05:41:36;3.53;;;2.50;;
12155;SDS011;6141;49.092;8.516;2023-05-07T05:44:05;2.73;;;2.40;;
12155;SDS011;6141;49.092;8.516;2023-05-07T05:46:33;4.57;;;2.40;;
12155;SDS011;6141;49.092;8.516;2023-05-07T05:49:03;2.77;;;2.40;;
12155;SDS011;6141;49.092;8.516;2023-05-07T05:51:33;3.57;;;2.63;;
12155;SDS011;6141;49.092;8.516;2023-05-07T05:54:04;2.67;;;2.47;;
12155;SDS011;6141;49.092;8.516;2023-05-07T05:56:32;2.30;;;2.10;;
12155;SDS011;6141;49.092;8.516;2023-05-07T05:59:01;2.73;;;2.40;;
12155;SDS011;6141;49.092;8.516;2023-05-07T06:01:31;2.83;;;2.40;;
12155;SDS011;6141;49.092;8.516;2023-05-07T06:04:03;2.90;;;2.60;;
12155;SDS011;6141;49.092;8.516;2023-05-07T06:06:32;2.60;;;1.97;;
12155;SDS011;6141;49.092;8.516;2023-05-07T06:09:02;2.43;;;2.20;;
12155;SDS011;6141;49.092;8.516;2023-05-07T06:11:40;2.33;;;2.13;;
12155;SDS011;6141;49.092;8.516;2023-05-07T06:14:10;2.47;;;2.27;;
12155;SDS011;6141;49.092;8.516;2023-05-07T06:16:39;2.50;;;2.00;;
12155;SDS011;6141;49.092;8.516;2023-05-07T06:19:10;2.73;;;2.30;;
12155;SDS011;6141;49.092;8.516;2023-05-07T06:21:40;3.07;;;2.23;;
12155;SDS011;6141;49.092;8.516;2023-05-07T06:24:10;3.10;;;2.00;;
12155;SDS011;6141;49.092;8.516;2023-05-07T06:26:39;2.43;;;2.23;;
12155;SDS011;6141;49.092;8.516;2023-05-07T06:29:08;3.13;;;1.83;;
12155;SDS011;6141;49.092;8.516;2023-05-07T06:31:39;3.97;;;2.30;;
12155;SDS011;6141;49.092;8.516;2023-05-07T06:34:10;2.00;;;1.80;;
12155;SDS011;6141;49.092;8.516;2023-05-07T06:36:41;3.97;;;2.20;;
12155;SDS011;6141;49.092;8.516;2023-05-07T06:39:29;2.60;;;1.80;;
12155;SDS011;6141;49.092;8.516;2023-05-07T06:41:58;2.47;;;2.27;;
12155;SDS011;6141;49.092;8.516;2023-05-07T06:44:31;2.07;;;1.90;;
12155;SDS011;6141;49.092;8.516;2023-05-07T06:47:12;2.57;;;1.83;;
12155;SDS011;6141;49.092;8.516;2023-05-07T06:49:44;3.27;;;1.80;;
12155;SDS011;6141;49.092;8.516;2023-05-07T06:52:16;2.20;;;2.00;;
12155;SDS011;6141;49.092;8.516;2023-05-07T06:54:47;2.37;;;1.80;;
12155;SDS011;6141;49.092;8.516;2023-05-07T06:57:17;2.93;;;2.13;;
12155;SDS011;6141;49.092;8.516;2023-05-07T06:59:46;4.90;;;1.97;;
12155;SDS011;6141;49.092;8.516;2023-05-07T07:02:16;4.57;;;2.20;;
12155;SDS011;6141;49.092;8.516;2023-05-07T07:04:46;2.23;;;2.03;;
12155;SDS011;6141;49.092;8.516;2023-05-07T07:07:14;2.47;;;1.47;;
12155;SDS011;6141;49.092;8.516;2023-05-07T07:09:48;2.67;;;2.10;;
12155;SDS011;6141;49.092;8.516;2023-05-07T07:12:18;4.83;;;1.73;;
12155;SDS011;6141;49.092;8.516;2023-05-07T07:14:47;2.53;;;1.77;;
12155;SDS011;6141;49.092;8.516;2023-05-07T07:17:15;3.13;;;1.73;;
12155;SDS011;6141;49.092;8.516;2023-05-07T07:19:44;2.37;;;1.90;;
12155;SDS011;6141;49.092;8.516;2023-05-07T07:22:15;2.10;;;1.80;;
12155;SDS011;6141;49.092;8.516;2023-05-07T07:24:47;2.13;;;1.67;;
12155;SDS011;6141;49.092;8.516;2023-05-07T07:27:17;2.33;;;1.70;;
12155;SDS011;6141;49.092;8.516;2023-05-07T07:29:50;4.13;;;1.80;;
12155;SDS011;6141;49.092;8.516;2023-05-07T07:32:19;3.30;;;1.50;;
12155;SDS011;6141;49.092;8.516;2023-05-07T07:34:48;3.10;;;1.77;;
12155;SDS011;6141;49.092;8.516;2023-05-07T07:37:17;3.13;;;1.57;;
12155;SDS011;6141;49.092;8.516;2023-05-07T07:39:46;3.30;;;1.90;;
12155;SDS011;6141;49.092;8.516;2023-05-07T07:42:16;2.73;;;1.90;;
12155;SDS011;6141;49.092;8.516;2023-05-07T07:44:45;2.00;;;1.80;;
12155;SDS011;6141;49.092;8.516;2023-05-07T07:47:16;2.37;;;1.70;;
12155;SDS011;6141;49.092;8.516;2023-05-07T07:49:48;2.80;;;1.90;;
12155;SDS011;6141;49.092;8.516;2023-05-07T07:52:17;3.50;;;1.70;;
12155;SDS011;6141;49.092;8.516;2023-05-07T07:54:48;2.20;;;1.70;;
12155;SDS011;6141;49.092;8.516;2023-05-07T07:57:17;2.03;;;1.60;;
12155;SDS011;6141;49.092;8.516;2023-05-07T07:59:46;3.87;;;1.90;;
12155;SDS011;6141;49.092;8.516;2023-05-07T08:02:15;3.70;;;1.70;;
12155;SDS011;6141;49.092;8.516;2023-05-07T08:04:45;2.80;;;1.50;;
12155;SDS011;6141;49.092;8.516;2023-05-07T08:07:14;2.80;;;1.60;;
12155;SDS011;6141;49.092;8.516;2023-05-07T08:09:48;2.20;;;1.60;;
12155;SDS011;6141;49.092;8.516;2023-05-07T08:12:20;2.50;;;1.80;;
12155;SDS011;6141;49.092;8.516;2023-05-07T08:14:49;2.93;;;1.97;;
12155;SDS011;6141;49.092;8.516;2023-05-07T08:17:17;2.23;;;1.83;;
12155;SDS011;6141;49.092;8.516;2023-05-07T08:19:49;2.83;;;1.50;;
12155;SDS011;6141;49.092;8.516;2023-05-07T08:22:18;3.60;;;1.53;;
12155;SDS011;6141;49.092;8.516;2023-05-07T08:24:49;1.60;;;1.50;;
12155;SDS011;6141;49.092;8.516;2023-05-07T08:27:20;2.43;;;1.70;;
12155;SDS011;6141;49.092;8.516;2023-05-07T08:29:48;3.20;;;1.50;;
12155;SDS011;6141;49.092;8.516;2023-05-07T08:32:21;2.83;;;1.80;;
12155;SDS011;6141;49.092;8.516;2023-05-07T08:34:50;3.80;;;1.97;;
12155;SDS011;6141;49.092;8.516;2023-05-07T08:37:19;2.30;;;1.47;;
12155;SDS011;6141;49.092;8.516;2023-05-07T08:39:47;4.00;;;1.70;;
12155;SDS011;6141;49.092;8.516;2023-05-07T08:42:20;2.57;;;1.60;;
12155;SDS011;6141;49.092;8.516;2023-05-07T08:44:51;3.60;;;1.67;;
12155;SDS011;6141;49.092;8.516;2023-05-07T08:47:23;2.50;;;1.80;;
12155;SDS011;6141;49.092;8.516;2023-05-07T08:49:59;2.30;;;1.50;;
12155;SDS011;6141;49.092;8.516;2023-05-07T08:52:29;4.13;;;1.60;;
12155;SDS011;6141;49.092;8.516;2023-05-07T08:55:00;2.23;;;2.03;;
12155;SDS011;6141;49.092;8.516;2023-05-07T08:57:31;3.57;;;1.70;;
12155;SDS011;6141;49.092;8.516;2023-05-07T09:00:00;1.97;;;1.60;;
12155;SDS011;6141;49.092;8.516;2023-05-07T09:02:30;2.60;;;1.60;;
12155;SDS011;6141;49.092;8.516;2023-05-07T09:04:59;2.23;;;1.80;;
12155;SDS011;6141;49.092;8.516;2023-05-07T09:07:29;4.10;;;1.60;;
12155;SDS011;6141;49.092;8.516;2023-05-07T09:10:02;2.53;;;1.70;;
12155;SDS011;6141;49.092;8.516;2023-05-07T09:12:33;3.83;;;1.80;;
12155;SDS011;6141;49.092;8.516;2023-05-07T09:15:05;2.90;;;1.60;;
12155;SDS011;6141;49.092;8.516;2023-05-07T09:17:38;4.77;;;2.00;;
12155;SDS011;6141;49.092;8.516;2023-05-07T09:20:08;2.60;;;1.73;;
12155;SDS011;6141;49.092;8.516;2023-05-07T09:22:39;3.63;;;1.70;;
12155;SDS011;6141;49.092;8.516;2023-05-07T09:25:13;2.47;;;1.70;;
12155;SDS011;6141;49.092;8.516;2023-05-07T09:27:41;2.47;;;2.07;;
12155;SDS011;6141;49.092;8.516;2023-05-07T09:30:12;2.50;;;1.73;;
12155;SDS011;6141;49.092;8.516;2023-05-07T09:32:40;2.23;;;1.80;;
12155;SDS011;6141;49.092;8.516;2023-05-07T09:35:16;2.10;;;1.70;;
12155;SDS011;6141;49.092;8.516;2023-05-07T09:37:52;3.80;;;1.50;;
12155;SDS011;6141;49.092;8.516;2023-05-07T09:40:23;2.60;;;1.90;;
12155;SDS011;6141;49.092;8.516;2023-05-07T09:42:54;2.00;;;1.77;;
12155;SDS011;6141;49.092;8.516;2023-05-07T09:45:24;4.27;;;2.10;;
12155;SDS011;6141;49.092;8.516;2023-05-07T09:47:54;2.23;;;1.90;;
12155;SDS011;6141;49.092;8.516;2023-05-07T09:50:25;4.17;;;1.70;;
12155;SDS011;6141;49.092;8.516;2023-05-07T09:52:57;3.60;;;2.10;;
12155;SDS011;6141;49.092;8.516;2023-05-07T09:55:28;2.77;;;1.50;;
12155;SDS011;6141;49.092;8.516;2023-05-07T09:57:59;5.13;;;1.83;;
12155;SDS011;6141;49.092;8.516;2023-05-07T10:00:29;3.60;;;1.60;;
12155;SDS011;6141;49.092;8.516;2023-05-07T10:03:07;2.60;;;2.00;;
12155;SDS011;6141;49.092;8.516;2023-05-07T10:05:46;3.17;;;1.90;;
12155;SDS011;6141;49.092;8.516;2023-05-07T10:08:18;2.20;;;1.93;;
12155;SDS011;6141;49.092;8.516;2023-05-07T10:10:53;4.43;;;2.10;;
12155;SDS011;6141;49.092;8.516;2023-05-07T10:13:24;1.97;;;1.67;;
12155;SDS011;6141;49.092;8.516;2023-05-07T10:15:55;2.53;;;2.20;;
12155;SDS011;6141;49.092;8.516;2023-05-07T10:18:28;5.00;;;1.70;;
12155;SDS011;6141;49.092;8.516;2023-05-07T10:21:07;2.43;;;1.83;;
12155;SDS011;6141;49.092;8.516;2023-05-07T10:23:41;1.93;;;1.63;;
12155;SDS011;6141;49.092;8.516;2023-05-07T10:26:14;2.20;;;2.00;;
12155;SDS011;6141;49.092;8.516;2023-05-07T10:28:45;1.70;;;1.60;;
12155;SDS011;6141;49.092;8.516;2023-05-07T10:31:23;2.33;;;1.90;;
12155;SDS011;6141;49.092;8.516;2023-05-07T10:34:09;5.00;;;1.70;;
12155;SDS011;6141;49.092;8.516;2023-05-07T10:36:41;3.53;;;1.80;;
12155;SDS011;6141;49.092;8.516;2023-05-07T10:39:10;4.10;;;2.23;;
12155;SDS011;6141;49.092;8.516;2023-05-07T10:41:41;2.33;;;1.87;;
12155;SDS011;6141;49.092;8.516;2023-05-07T10:44:10;3.50;;;2.20;;
12155;SDS011;6141;49.092;8.516;2023-05-07T10:46:39;2.07;;;1.70;;
12155;SDS011;6141;49.092;8.516;2023-05-07T10:49:16;1.90;;;1.73;;
12155;SDS011;6141;49.092;8.516;2023-05-07T10:52:16;2.67;;;1.90;;
12155;SDS011;6141;49.092;8.516;2023-05-07T10:55:21;4.30;;;2.30;;
12155;SDS011;6141;49.092;8.516;2023-05-07T10:58:26;2.80;;;1.80;;
12155;SDS011;6141;49.092;8.516;2023-05-07T11:04:25;3.27;;;2.00;;
12155;SDS011;6141;49.092;8.516;2023-05-07T11:07:21;2.80;;;2.13;;
12155;SDS011;6141;49.092;8.516;2023-05-07T11:09:59;2.73;;;1.90;;
12155;SDS011;6141;49.092;8.516;2023-05-07T11:12:51;3.27;;;1.90;;
12155;SDS011;6141;49.092;8.516;2023-05-07T11:15:41;7.20;;;3.47;;
12155;SDS011;6141;49.092;8.516;2023-05-07T11:18:25;4.13;;;2.07;;
12155;SDS011;6141;49.092;8.516;2023-05-07T11:21:32;2.27;;;1.77;;
12155;SDS011;6141;49.092;8.516;2023-05-07T11:24:15;2.50;;;2.00;;
12155;SDS011;6141;49.092;8.516;2023-05-07T11:26:56;2.87;;;1.80;;
12155;SDS011;6141;49.092;8.516;2023-05-07T11:29:26;2.20;;;2.00;;
12155;SDS011;6141;49.092;8.516;2023-05-07T11:32:04;2.70;;;1.90;;
12155;SDS011;6141;49.092;8.516;2023-05-07T11:34:44;2.10;;;1.90;;
12155;SDS011;6141;49.092;8.516;2023-05-07T11:37:16;5.30;;;1.90;;
12155;SDS011;6141;49.092;8.516;2023-05-07T11:39:50;2.60;;;2.00;;
12155;SDS011;6141;49.092;8.516;2023-05-07T11:42:31;2.40;;;1.80;;
12155;SDS011;6141;49.092;8.516;2023-05-07T11:45:01;4.10;;;1.83;;
12155;SDS011;6141;49.092;8.516;2023-05-07T11:47:30;2.83;;;1.60;;
12155;SDS011;6141;49.092;8.516;2023-05-07T11:50:03;4.17;;;1.73;;
12155;SDS011;6141;49.092;8.516;2023-05-07T11:52:34;2.57;;;1.93;;
12155;SDS011;6141;49.092;8.516;2023-05-07T11:55:04;3.73;;;2.13;;
12155;SDS011;6141;49.092;8.516;2023-05-07T11:57:35;2.00;;;1.63;;
12155;SDS011;6141;49.092;8.516;2023-05-07T12:00:05;4.77;;;1.90;;
12155;SDS011;6141;49.092;8.516;2023-05-07T12:02:41;2.53;;;1.90;;
12155;SDS011;6141;49.092;8.516;2023-05-07T12:05:11;4.30;;;2.10;;
12155;SDS011;6141;49.092;8.516;2023-05-07T12:07:40;2.97;;;1.83;;
12155;SDS011;6141;49.092;8.516;2023-05-07T12:10:09;2.30;;;1.80;;
12155;SDS011;6141;49.092;8.516;2023-05-07T12:12:40;1.90;;;1.80;;
12155;SDS011;6141;49.092;8.516;2023-05-07T12:15:09;1.97;;;1.50;;
12155;SDS011;6141;49.092;8.516;2023-05-07T12:17:38;3.07;;;1.80;;
12155;SDS011;6141;49.092;8.516;2023-05-07T12:20:08;2.23;;;1.77;;
12155;SDS011;6141;49.092;8.516;2023-05-07T12:22:38;2.10;;;1.90;;
12155;SDS011;6141;49.092;8.516;2023-05-07T12:25:07;1.90;;;1.70;;
12155;SDS011;6141;49.092;8.516;2023-05-07T12:27:37;2.20;;;2.00;;
12155;SDS011;6141;49.092;8.516;2023-05-07T12:30:09;2.83;;;1.70;;
12155;SDS011;6141;49.092;8.516;2023-05-07T12:32:39;2.53;;;1.77;;
12155;SDS011;6141;49.092;8.516;2023-05-07T12:35:08;2.23;;;1.60;;
12155;SDS011;6141;49.092;8.516;2023-05-07T12:37:38;3.23;;;1.67;;
12155;SDS011;6141;49.092;8.516;2023-05-07T12:40:08;1.73;;;1.50;;
12155;SDS011;6141;49.092;8.516;2023-05-07T12:42:40;3.77;;;1.80;;
12155;SDS011;6141;49.092;8.516;2023-05-07T12:45:12;1.70;;;1.60;;
12155;SDS011;6141;49.092;8.516;2023-05-07T12:47:43;2.43;;;1.47;;
12155;SDS011;6141;49.092;8.516;2023-05-07T12:50:13;1.83;;;1.60;;
12155;SDS011;6141;49.092;8.516;2023-05-07T12:52:45;2.07;;;1.63;;
12155;SDS011;6141;49.092;8.516;2023-05-07T12:55:15;2.67;;;1.70;;
12155;SDS011;6141;49.092;8.516;2023-05-07T12:57:45;2.30;;;1.70;;
12155;SDS011;6141;49.092;8.516;2023-05-07T13:00:17;2.37;;;1.90;;
12155;SDS011;6141;49.092;8.516;2023-05-07T13:02:46;4.33;;;1.90;;
12155;SDS011;6141;49.092;8.516;2023-05-07T13:05:14;5.67;;;1.77;;
12155;SDS011;6141;49.092;8.516;2023-05-07T13:07:53;2.80;;;1.70;;
12155;SDS011;6141;49.092;8.516;2023-05-07T13:10:23;3.67;;;1.97;;
12155;SDS011;6141;49.092;8.516;2023-05-07T13:12:52;2.57;;;1.90;;
12155;SDS011;6141;49.092;8.516;2023-05-07T13:15:21;2.13;;;1.80;;
12155;SDS011;6141;49.092;8.516;2023-05-07T13:17:49;3.67;;;1.50;;
12155;SDS011;6141;49.092;8.516;2023-05-07T13:20:19;2.33;;;1.70;;
12155;SDS011;6141;49.092;8.516;2023-05-07T13:22:48;2.30;;;1.67;;
12155;SDS011;6141;49.092;8.516;2023-05-07T13:25:17;3.87;;;2.00;;
12155;SDS011;6141;49.092;8.516;2023-05-07T13:27:49;3.00;;;1.90;;
12155;SDS011;6141;49.092;8.516;2023-05-07T13:30:35;2.30;;;2.00;;
12155;SDS011;6141;49.092;8.516;2023-05-07T13:33:04;2.47;;;1.90;;
12155;SDS011;6141;49.092;8.516;2023-05-07T13:35:32;3.73;;;2.00;;
12155;SDS011;6141;49.092;8.516;2023-05-07T13:38:01;3.17;;;2.10;;
12155;SDS011;6141;49.092;8.516;2023-05-07T13:40:31;3.73;;;2.20;;
12155;SDS011;6141;49.092;8.516;2023-05-07T13:42:59;3.57;;;2.00;;
12155;SDS011;6141;49.092;8.516;2023-05-07T13:45:29;4.17;;;2.00;;
12155;SDS011;6141;49.092;8.516;2023-05-07T13:47:58;2.17;;;1.20;;
12155;SDS011;6141;49.092;8.516;2023-05-07T13:50:27;2.77;;;1.23;;
12155;SDS011;6141;49.092;8.516;2023-05-07T13:52:56;9.70;;;1.73;;
12155;SDS011;6141;49.092;8.516;2023-05-07T13:55:25;6.17;;;1.20;;
12155;SDS011;6141;49.092;8.516;2023-05-07T13:57:58;1.83;;;1.20;;
12155;SDS011;6141;49.092;8.516;2023-05-07T14:00:34;1.90;;;1.13;;
12155;SDS011;6141;49.092;8.516;2023-05-07T14:03:02;1.77;;;0.97;;
12155;SDS011;6141;49.092;8.516;2023-05-07T14:05:32;5.60;;;1.13;;
12155;SDS011;6141;49.092;8.516;2023-05-07T14:08:01;5.43;;;1.20;;
12155;SDS011;6141;49.092;8.516;2023-05-07T14:10:31;4.30;;;1.30;;
12155;SDS011;6141;49.092;8.516;2023-05-07T14:13:02;8.00;;;2.10;;
12155;SDS011;6141;49.092;8.516;2023-05-07T14:15:31;5.60;;;1.37;;
12155;SDS011;6141;49.092;8.516;2023-05-07T14:17:59;2.87;;;1.40;;
12155;SDS011;6141;49.092;8.516;2023-05-07T14:20:28;3.20;;;1.40;;
12155;SDS011;6141;49.092;8.516;2023-05-07T14:22:57;2.87;;;1.30;;
12155;SDS011;6141;49.092;8.516;2023-05-07T14:25:25;1.97;;;1.23;;
12155;SDS011;6141;49.092;8.516;2023-05-07T14:27:54;5.27;;;1.73;;
12155;SDS011;6141;49.092;8.516;2023-05-07T14:30:24;16.03;;;1.87;;
12155;SDS011;6141;49.092;8.516;2023-05-07T14:32:53;3.40;;;1.40;;
12155;SDS011;6141;49.092;8.516;2023-05-07T14:35:22;2.47;;;1.30;;
12155;SDS011;6141;49.092;8.516;2023-05-07T14:37:50;6.60;;;2.00;;
12155;SDS011;6141;49.092;8.516;2023-05-07T14:40:19;5.20;;;1.60;;
12155;SDS011;6141;49.092;8.516;2023-05-07T14:42:47;3.07;;;1.50;;
12155;SDS011;6141;49.092;8.516;2023-05-07T14:45:16;2.03;;;1.40;;
12155;SDS011;6141;49.092;8.516;2023-05-07T14:47:46;5.40;;;1.77;;
12155;SDS011;6141;49.092;8.516;2023-05-07T14:50:15;3.90;;;1.70;;
12155;SDS011;6141;49.092;8.516;2023-05-07T14:52:44;2.47;;;1.50;;
12155;SDS011;6141;49.092;8.516;2023-05-07T14:55:12;3.60;;;1.70;;
12155;SDS011;6141;49.092;8.516;2023-05-07T14:57:41;5.03;;;1.57;;
12155;SDS011;6141;49.092;8.516;2023-05-07T15:00:09;3.20;;;1.60;;
12155;SDS011;6141;49.092;8.516;2023-05-07T15:02:39;2.40;;;1.53;;
12155;SDS011;6141;49.092;8.516;2023-05-07T15:05:09;3.57;;;1.77;;
12155;SDS011;6141;49.092;8.516;2023-05-07T15:07:38;3.37;;;1.80;;
12155;SDS011;6141;49.092;8.516;2023-05-07T15:10:07;3.30;;;1.73;;
12155;SDS011;6141;49.092;8.516;2023-05-07T15:12:36;2.83;;;1.70;;
12155;SDS011;6141;49.092;8.516;2023-05-07T15:15:06;5.27;;;2.17;;
12155;SDS011;6141;49.092;8.516;2023-05-07T15:17:35;5.47;;;2.10;;
12155;SDS011;6141;49.092;8.516;2023-05-07T15:20:04;4.00;;;1.93;;
12155;SDS011;6141;49.092;8.516;2023-05-07T15:22:36;4.27;;;2.37;;
12155;SDS011;6141;49.092;8.516;2023-05-07T15:25:04;3.60;;;2.37;;
12155;SDS011;6141;49.092;8.516;2023-05-07T15:27:33;8.87;;;4.17;;